createdAt,value
2018-05-03T00:01:43.345Z,12.20
2018-05-03T00:04:10.629Z,12.10
2018-05-03T00:06:37.054Z,12.00
2018-05-03T00:09:04.403Z,12.00
2018-05-03T00:11:30.578Z,11.90
2018-05-03T00:13:56.734Z,12.10
2018-05-03T00:16:22.986Z,11.90
2018-05-03T00:18:50.856Z,12.00
2018-05-03T00:21:17.046Z,12.00
2018-05-03T00:23:44.322Z,11.80
2018-05-03T00:26:10.506Z,11.80
2018-05-03T00:28:37.774Z,11.80
2018-05-03T00:31:03.957Z,11.70
2018-05-03T00:33:31.238Z,11.70
2018-05-03T00:35:57.398Z,11.70
2018-05-03T00:38:24.702Z,11.70
2018-05-03T00:40:50.866Z,11.70
2018-05-03T00:43:17.039Z,11.70
2018-05-03T00:45:43.222Z,11.60
2018-05-03T00:48:09.395Z,11.70
2018-05-03T00:50:36.711Z,11.80
2018-05-03T00:53:02.913Z,11.70
2018-05-03T00:55:29.079Z,11.70
2018-05-03T00:57:55.241Z,11.70
2018-05-03T01:00:21.419Z,11.70
2018-05-03T01:02:47.577Z,11.70
2018-05-03T01:05:13.749Z,11.70
2018-05-03T01:07:39.963Z,11.70
2018-05-03T01:10:06.163Z,11.50
2018-05-03T01:12:32.330Z,11.60
2018-05-03T01:14:58.506Z,11.70
2018-05-03T01:17:24.662Z,11.70
2018-05-03T01:19:50.855Z,11.60
2018-05-03T01:22:17.012Z,11.50
2018-05-03T01:24:43.187Z,11.50
2018-05-03T01:27:09.372Z,11.40
2018-05-03T01:29:35.550Z,11.30
2018-05-03T01:32:01.743Z,11.30
2018-05-03T01:34:29.040Z,11.30
2018-05-03T01:36:55.210Z,11.20
2018-05-03T01:41:49.237Z,11.20
2018-05-03T01:44:15.442Z,11.30
2018-05-03T01:46:41.615Z,11.60
2018-05-03T01:49:07.778Z,11.50
2018-05-03T01:51:33.974Z,11.20
2018-05-03T01:54:00.127Z,11.10
2018-05-03T01:56:27.395Z,11.10
2018-05-03T01:58:53.577Z,11.10
2018-05-03T02:03:47.682Z,11.30
2018-05-03T02:06:13.833Z,11.30
2018-05-03T02:08:39.987Z,11.30
2018-05-03T02:11:06.206Z,11.30
2018-05-03T02:13:32.415Z,11.20
2018-05-03T02:15:58.546Z,11.40
2018-05-03T02:18:24.722Z,11.30
2018-05-03T02:20:51.983Z,11.10
2018-05-03T02:23:18.186Z,11.00
2018-05-03T02:25:44.348Z,10.90
2018-05-03T02:28:10.517Z,11.00
2018-05-03T02:30:36.963Z,11.00
2018-05-03T02:33:03.143Z,11.00
2018-05-03T02:35:29.299Z,10.90
2018-05-03T02:37:55.470Z,11.00
2018-05-03T02:40:24.021Z,11.10
2018-05-03T02:45:23.568Z,11.10
2018-05-03T02:47:52.487Z,11.10
2018-05-03T02:50:22.109Z,11.00
2018-05-03T02:52:48.302Z,11.00
2018-05-03T02:58:00.686Z,11.00
2018-05-03T03:00:46.462Z,11.10
2018-05-03T03:06:18.638Z,11.00
2018-05-03T03:16:07.943Z,10.90
2018-05-03T03:18:52.590Z,11.00
2018-05-03T03:21:37.391Z,10.90
2018-05-03T03:24:22.040Z,11.10
2018-05-03T03:30:32.096Z,10.90
2018-05-03T03:33:10.646Z,10.90
2018-05-03T03:39:07.234Z,11.00
2018-05-03T03:41:38.450Z,10.90
2018-05-03T03:44:16.950Z,10.90
2018-05-03T03:46:43.169Z,11.00
2018-05-03T03:49:09.337Z,11.10
2018-05-03T03:51:36.609Z,11.20
2018-05-03T03:54:02.918Z,11.20
2018-05-03T03:56:29.084Z,11.10
2018-05-03T03:58:55.258Z,11.10
2018-05-03T04:01:21.422Z,11.10
2018-05-03T04:03:48.682Z,11.20
2018-05-03T04:06:14.862Z,11.20
2018-05-03T04:08:41.023Z,11.10
2018-05-03T04:11:07.205Z,11.20
2018-05-03T04:16:01.246Z,11.20
2018-05-03T04:18:39.581Z,11.30
2018-05-03T04:21:17.926Z,11.30
2018-05-03T04:26:45.099Z,11.10
2018-05-03T04:29:11.254Z,11.30
2018-05-03T04:31:37.402Z,11.20
2018-05-03T04:34:03.585Z,11.30
2018-05-03T04:36:29.739Z,11.20
2018-05-03T04:38:57.038Z,11.50
2018-05-03T04:41:23.198Z,11.50
2018-05-03T04:46:17.274Z,11.40
2018-05-03T04:48:43.460Z,11.60
2018-05-03T04:51:09.762Z,11.60
2018-05-03T04:53:35.941Z,11.50
2018-05-03T04:56:02.324Z,11.50
2018-05-03T04:58:29.603Z,11.60
2018-05-03T05:00:56.771Z,11.60
2018-05-03T05:03:22.942Z,11.60
2018-05-03T05:05:49.094Z,11.70
2018-05-03T05:08:15.276Z,11.70
2018-05-03T05:10:41.855Z,11.90
2018-05-03T05:13:09.137Z,12.00
2018-05-03T05:15:35.403Z,12.00
2018-05-03T05:18:02.725Z,12.10
2018-05-03T05:20:28.931Z,12.10
2018-05-03T05:22:55.775Z,12.10
2018-05-03T05:25:21.929Z,12.20
2018-05-03T05:27:48.296Z,12.20
2018-05-03T05:30:14.415Z,12.30
2018-05-03T05:32:40.722Z,12.40
2018-05-03T05:35:06.883Z,12.40
2018-05-03T05:37:33.047Z,12.40
2018-05-03T05:39:59.246Z,12.50
2018-05-03T05:42:25.430Z,12.60
2018-05-03T05:44:51.674Z,12.60
2018-05-03T05:47:17.946Z,12.70
2018-05-03T05:49:44.106Z,12.70
2018-05-03T05:52:10.318Z,12.80
2018-05-03T05:54:36.487Z,12.80
2018-05-03T05:57:04.436Z,12.90
2018-05-03T05:59:30.638Z,12.90
2018-05-03T06:01:57.915Z,13.00
2018-05-03T06:04:24.094Z,13.00
2018-05-03T06:06:50.527Z,12.90
2018-05-03T06:09:16.758Z,13.20
2018-05-03T06:11:42.930Z,13.20
2018-05-03T06:14:10.237Z,13.10
2018-05-03T06:16:36.423Z,13.10
2018-05-03T06:19:02.591Z,13.10
2018-05-03T06:21:29.879Z,13.20
2018-05-03T06:23:56.060Z,13.20
2018-05-03T06:26:22.323Z,13.30
2018-05-03T06:28:48.506Z,13.20
2018-05-03T06:31:14.704Z,13.30
2018-05-03T06:33:40.881Z,13.30
2018-05-03T06:36:07.093Z,13.20
2018-05-03T06:38:33.335Z,13.30
2018-05-03T06:40:59.502Z,13.40
2018-05-03T06:43:25.654Z,13.40
2018-05-03T06:48:21.188Z,13.50
2018-05-03T06:50:47.369Z,13.60
2018-05-03T06:53:13.554Z,13.60
2018-05-03T06:55:39.715Z,13.70
2018-05-03T06:58:05.904Z,13.70
2018-05-03T07:02:59.954Z,13.70
2018-05-03T07:05:27.331Z,14.00
2018-05-03T07:07:53.502Z,14.00
2018-05-03T07:10:19.663Z,13.90
2018-05-03T07:12:45.818Z,13.90
2018-05-03T07:15:11.986Z,14.00
2018-05-03T07:17:38.146Z,13.90
2018-05-03T07:20:04.386Z,14.10
2018-05-03T07:22:31.910Z,14.20
2018-05-03T07:24:58.111Z,14.10
2018-05-03T07:27:24.261Z,14.30
2018-05-03T07:29:50.432Z,14.30
2018-05-03T07:32:16.594Z,14.30
2018-05-03T07:34:42.774Z,14.30
2018-05-03T07:37:10.046Z,14.50
2018-05-03T07:39:36.222Z,14.50
2018-05-03T07:42:02.441Z,14.60
2018-05-03T07:44:28.622Z,14.70
2018-05-03T07:46:54.782Z,14.70
2018-05-03T07:49:20.985Z,14.80
2018-05-03T07:54:15.038Z,14.80
2018-05-03T07:56:41.223Z,14.90
2018-05-03T07:59:07.370Z,15.10
2018-05-03T08:01:33.579Z,15.20
2018-05-03T08:03:59.750Z,15.10
2018-05-03T08:06:26.079Z,15.20
2018-05-03T08:08:52.270Z,15.40
2018-05-03T08:11:18.421Z,15.30
2018-05-03T08:13:44.593Z,15.50
2018-05-03T08:16:10.779Z,15.40
2018-05-03T08:21:04.934Z,15.60
2018-05-03T08:23:32.222Z,15.70
2018-05-03T08:25:59.461Z,15.80
2018-05-03T08:28:25.662Z,15.80
2018-05-03T08:30:51.804Z,15.60
2018-05-03T08:33:18.040Z,15.70
2018-05-03T08:35:44.260Z,15.90
2018-05-03T08:38:11.529Z,15.80
2018-05-03T08:40:37.711Z,15.70
2018-05-03T08:43:05.034Z,16.10
2018-05-03T08:45:31.211Z,15.90
2018-05-03T08:47:57.382Z,16.10
2018-05-03T08:50:24.667Z,16.10
2018-05-03T08:52:50.860Z,16.20
2018-05-03T08:55:17.114Z,16.10
2018-05-03T08:57:43.299Z,16.00
2018-05-03T09:00:09.498Z,16.20
2018-05-03T09:02:35.661Z,16.40
2018-05-03T09:05:01.857Z,16.40
2018-05-03T09:07:28.131Z,16.60
2018-05-03T09:09:55.408Z,16.80
2018-05-03T09:12:21.647Z,16.70
2018-05-03T09:14:47.814Z,16.60
2018-05-03T09:17:14.022Z,16.80
2018-05-03T09:19:40.178Z,17.10
2018-05-03T09:22:06.362Z,17.20
2018-05-03T09:24:32.532Z,17.10
2018-05-03T09:26:59.807Z,17.80
2018-05-03T09:29:26.008Z,17.80
2018-05-03T09:31:52.172Z,18.10
2018-05-03T09:34:18.363Z,18.30
2018-05-03T09:36:44.526Z,18.90
2018-05-03T09:41:38.682Z,19.10
2018-05-03T09:44:05.970Z,18.80
2018-05-03T09:46:32.249Z,18.80
2018-05-03T09:48:58.451Z,18.90
2018-05-03T09:51:25.737Z,19.50
2018-05-03T09:53:51.891Z,19.40
2018-05-03T09:56:18.070Z,19.50
2018-05-03T09:58:44.230Z,19.70
2018-05-03T10:01:11.511Z,21.20
2018-05-03T10:03:37.677Z,21.10
2018-05-03T10:06:04.974Z,20.70
2018-05-03T10:08:31.137Z,20.60
2018-05-03T10:10:58.398Z,20.20
2018-05-03T10:13:24.657Z,20.20
2018-05-03T10:15:50.818Z,20.40
2018-05-03T10:18:16.981Z,21.50
2018-05-03T10:20:43.165Z,21.50
2018-05-03T10:23:09.314Z,21.70
2018-05-03T10:25:35.483Z,22.40
2018-05-03T10:28:01.746Z,22.10
2018-05-03T10:30:27.915Z,22.30
2018-05-03T10:32:54.101Z,22.70
2018-05-03T10:35:20.365Z,23.30
2018-05-03T10:37:46.542Z,23.30
2018-05-03T10:40:12.730Z,23.70
2018-05-03T10:42:40.027Z,24.10
2018-05-03T10:45:06.190Z,24.10
2018-05-03T10:47:32.381Z,24.50
2018-05-03T10:49:58.591Z,24.70
2018-05-03T10:52:25.866Z,24.50
2018-05-03T10:54:52.196Z,24.50
2018-05-03T10:57:18.350Z,24.10
2018-05-03T10:59:44.526Z,24.20
2018-05-03T11:02:10.677Z,24.50
2018-05-03T11:04:36.826Z,24.30
2018-05-03T11:07:03.035Z,24.50
2018-05-03T11:09:29.213Z,24.10
2018-05-03T11:11:55.406Z,23.70
2018-05-03T11:14:21.943Z,23.30
2018-05-03T11:16:49.317Z,23.00
2018-05-03T11:19:16.644Z,22.50
2018-05-03T11:21:43.902Z,22.20
2018-05-03T11:24:10.091Z,22.20
2018-05-03T11:26:36.251Z,22.00
2018-05-03T11:29:02.438Z,21.80
2018-05-03T11:31:28.665Z,22.40
2018-05-03T11:33:55.934Z,25.00
2018-05-03T11:36:22.134Z,25.00
2018-05-03T11:38:48.291Z,25.40
2018-05-03T11:41:14.442Z,25.00
2018-05-03T11:43:40.622Z,25.10
2018-05-03T11:46:06.914Z,24.80
2018-05-03T11:48:33.090Z,26.20
2018-05-03T11:50:59.249Z,28.70
2018-05-03T11:53:25.510Z,28.60
2018-05-03T11:55:51.687Z,27.70
2018-05-03T11:58:19.059Z,25.30
2018-05-03T12:00:45.278Z,25.30
2018-05-03T12:03:11.506Z,24.00
2018-05-03T12:05:37.720Z,23.10
2018-05-03T12:08:03.947Z,22.40
2018-05-03T12:10:30.131Z,22.00
2018-05-03T12:12:56.329Z,22.00
2018-05-03T12:15:22.496Z,24.10
2018-05-03T12:17:48.736Z,25.90
2018-05-03T12:20:15.630Z,28.60
2018-05-03T12:22:41.801Z,28.50
2018-05-03T12:25:07.969Z,27.50
2018-05-03T12:27:34.204Z,26.60
2018-05-03T12:30:00.391Z,25.70
2018-05-03T12:32:26.562Z,24.60
2018-05-03T12:34:52.732Z,23.50
2018-05-03T12:37:18.925Z,23.00
2018-05-03T12:39:45.098Z,23.40
2018-05-03T12:42:11.321Z,26.60
2018-05-03T12:44:37.511Z,28.40
2018-05-03T12:47:04.412Z,32.10
2018-05-03T12:49:30.602Z,32.00
2018-05-03T12:51:56.785Z,30.40
2018-05-03T12:54:23.039Z,29.90
2018-05-03T12:56:49.226Z,31.10
2018-05-03T12:59:15.500Z,33.70
2018-05-03T13:01:41.634Z,33.80
2018-05-03T13:04:07.808Z,32.50
2018-05-03T13:06:33.985Z,31.90
2018-05-03T13:09:00.138Z,30.30
2018-05-03T13:11:27.061Z,30.90
2018-05-03T13:13:53.436Z,30.90
2018-05-03T13:16:19.916Z,33.20
2018-05-03T13:18:46.825Z,34.90
2018-05-03T13:21:13.131Z,34.90
2018-05-03T13:23:39.343Z,35.40
2018-05-03T13:26:05.515Z,35.60
2018-05-03T13:28:31.661Z,35.50
2018-05-03T13:30:57.842Z,35.00
2018-05-03T13:33:24.013Z,35.00
2018-05-03T13:35:50.202Z,34.50
2018-05-03T13:38:16.346Z,32.90
2018-05-03T13:40:43.658Z,27.50
2018-05-03T13:43:09.847Z,27.40
2018-05-03T13:45:36.046Z,25.40
2018-05-03T13:48:02.274Z,23.80
2018-05-03T13:50:28.430Z,23.10
2018-05-03T13:52:55.705Z,26.70
2018-05-03T13:55:21.906Z,26.70
2018-05-03T13:57:48.102Z,26.00
2018-05-03T14:00:15.054Z,25.30
2018-05-03T14:02:41.215Z,25.30
2018-05-03T14:05:08.296Z,27.00
2018-05-03T14:07:34.738Z,28.50
2018-05-03T14:10:01.002Z,30.10
2018-05-03T14:12:27.279Z,29.40
2018-05-03T14:14:53.567Z,28.60
2018-05-03T14:17:19.739Z,27.10
2018-05-03T14:19:45.901Z,26.20
2018-05-03T14:22:12.166Z,25.50
2018-05-03T14:24:38.472Z,24.20
2018-05-03T14:27:04.662Z,23.40
2018-05-03T14:29:31.875Z,22.80
2018-05-03T14:31:58.108Z,23.20
2018-05-03T14:34:24.275Z,24.10
2018-05-03T14:36:52.330Z,26.50
2018-05-03T14:39:20.235Z,27.40
2018-05-03T14:41:46.403Z,27.30
2018-05-03T14:46:40.544Z,26.00
2018-05-03T14:49:06.810Z,25.40
2018-05-03T14:51:33.082Z,24.70
2018-05-03T14:53:59.239Z,23.80
2018-05-03T14:56:25.435Z,22.90
2018-05-03T14:58:51.663Z,22.50
2018-05-03T15:01:17.834Z,22.10
2018-05-03T15:03:44.056Z,22.00
2018-05-03T15:06:10.234Z,21.60
2018-05-03T15:08:36.402Z,21.50
2018-05-03T15:11:02.558Z,21.30
2018-05-03T15:13:28.749Z,21.20
2018-05-03T15:15:54.940Z,20.70
2018-05-03T15:18:21.842Z,20.70
2018-05-03T15:20:47.998Z,20.60
2018-05-03T15:23:14.174Z,20.50
2018-05-03T15:25:41.522Z,20.40
2018-05-03T15:28:07.691Z,20.20
2018-05-03T15:30:34.683Z,20.30
2018-05-03T15:33:01.491Z,20.50
2018-05-03T15:35:28.782Z,20.40
2018-05-03T15:37:54.989Z,20.40
2018-05-03T15:40:21.254Z,20.40
2018-05-03T15:42:47.637Z,20.40
2018-05-03T15:45:13.820Z,20.30
2018-05-03T15:47:39.970Z,20.00
2018-05-03T15:50:06.211Z,20.10
2018-05-03T15:52:32.310Z,19.80
2018-05-03T15:54:58.480Z,19.90
2018-05-03T15:57:26.555Z,19.60
2018-05-03T15:59:52.735Z,19.60
2018-05-03T16:02:18.914Z,19.40
2018-05-03T16:04:46.178Z,19.40
2018-05-03T16:07:12.327Z,19.40
2018-05-03T16:09:38.490Z,19.20
2018-05-03T16:14:32.608Z,19.30
2018-05-03T16:16:58.997Z,19.40
2018-05-03T16:19:25.157Z,19.20
2018-05-03T16:21:51.995Z,19.30
2018-05-03T16:24:18.186Z,19.30
2018-05-03T16:26:44.501Z,18.90
2018-05-03T16:29:10.701Z,19.00
2018-05-03T16:31:36.959Z,18.90
2018-05-03T16:34:04.259Z,19.00
2018-05-03T16:36:34.542Z,19.00
2018-05-03T16:39:02.103Z,18.90
2018-05-03T16:41:30.373Z,18.80
2018-05-03T16:43:56.549Z,18.80
2018-05-03T16:46:22.754Z,18.80
2018-05-03T16:48:48.959Z,18.80
2018-05-03T16:51:16.326Z,18.60
2018-05-03T16:53:43.725Z,18.60
2018-05-03T16:56:10.495Z,18.70
2018-05-03T16:58:37.083Z,18.80
2018-05-03T17:01:04.489Z,18.80
2018-05-03T17:03:31.107Z,18.70
2018-05-03T17:05:57.298Z,18.70
2018-05-03T17:08:23.522Z,18.80
2018-05-03T17:10:50.444Z,18.60
2018-05-03T17:13:16.618Z,18.60
2018-05-03T17:15:43.982Z,18.60
2018-05-03T17:18:10.139Z,18.60
2018-05-03T17:20:36.337Z,18.50
2018-05-03T17:23:04.306Z,18.40
2018-05-03T17:25:30.498Z,18.50
2018-05-03T17:27:56.679Z,18.20
2018-05-03T17:30:24.349Z,17.80
2018-05-03T17:32:51.599Z,18.20
2018-05-03T17:35:17.762Z,18.20
2018-05-03T17:37:45.132Z,18.10
2018-05-03T17:40:11.360Z,18.10
2018-05-03T17:42:37.574Z,18.00
2018-05-03T17:45:03.785Z,18.10
2018-05-03T17:47:29.976Z,18.00
2018-05-03T17:49:56.151Z,18.00
2018-05-03T17:52:22.468Z,17.80
2018-05-03T17:54:48.645Z,17.60
2018-05-03T17:57:14.946Z,17.70
2018-05-03T17:59:41.113Z,17.60
2018-05-03T18:02:07.297Z,17.60
2018-05-03T18:04:33.532Z,17.50
2018-05-03T18:06:59.670Z,17.30
2018-05-03T18:09:26.950Z,17.40
2018-05-03T18:11:53.146Z,17.30
2018-05-03T18:14:19.367Z,17.20
2018-05-03T18:16:45.522Z,17.30
2018-05-03T18:19:11.694Z,17.30
2018-05-03T18:21:37.854Z,17.20
2018-05-03T18:24:04.038Z,17.10
2018-05-03T18:26:30.214Z,17.00
2018-05-03T18:28:56.430Z,17.00
2018-05-03T18:31:22.765Z,16.90
2018-05-03T18:33:49.550Z,16.90
2018-05-03T18:36:18.306Z,16.90
2018-05-03T18:38:44.604Z,16.90
2018-05-03T18:41:10.773Z,16.80
2018-05-03T18:43:37.010Z,16.70
2018-05-03T18:46:04.210Z,16.70
2018-05-03T18:48:30.526Z,16.70
2018-05-03T18:50:56.737Z,16.60
2018-05-03T18:53:22.930Z,16.60
2018-05-03T18:55:49.120Z,16.60
2018-05-03T18:58:15.304Z,16.50
2018-05-03T19:00:41.550Z,16.30
2018-05-03T19:03:07.752Z,16.20
2018-05-03T19:05:34.054Z,16.30
2018-05-03T19:08:01.155Z,16.30
2018-05-03T19:10:28.866Z,16.20
2018-05-03T19:12:55.226Z,16.20
2018-05-03T19:15:21.409Z,16.20
2018-05-03T19:17:47.583Z,16.10
2018-05-03T19:20:14.728Z,16.10
2018-05-03T19:22:40.910Z,16.00
2018-05-03T19:25:07.074Z,16.00
2018-05-03T19:27:33.326Z,16.00
2018-05-03T19:29:59.518Z,15.90
2018-05-03T19:32:25.694Z,16.00
2018-05-03T19:34:51.858Z,16.00
2018-05-03T19:37:18.229Z,15.90
2018-05-03T19:39:44.410Z,15.90
2018-05-03T19:42:10.602Z,15.80
2018-05-03T19:44:36.909Z,15.60
2018-05-03T19:47:04.205Z,15.80
2018-05-03T19:49:30.363Z,15.80
2018-05-03T19:51:56.598Z,15.80
2018-05-03T19:54:22.787Z,15.70
2018-05-03T19:56:50.163Z,15.60
2018-05-03T19:59:16.442Z,15.60
2018-05-03T20:01:43.732Z,15.50
2018-05-03T20:04:09.926Z,15.50
2018-05-03T20:06:36.086Z,15.50
2018-05-03T20:09:03.008Z,15.40
2018-05-03T20:11:29.187Z,15.40
2018-05-03T20:13:55.390Z,15.20
2018-05-03T20:16:21.626Z,15.30
2018-05-03T20:18:47.823Z,15.30
2018-05-03T20:21:15.271Z,15.20
2018-05-03T20:23:41.439Z,15.20
2018-05-03T20:26:07.627Z,15.10
2018-05-03T20:28:33.789Z,15.00
2018-05-03T20:31:00.050Z,15.10
2018-05-03T20:33:26.230Z,15.00
2018-05-03T20:35:52.470Z,15.10
2018-05-03T20:38:18.678Z,14.90
2018-05-03T20:40:44.883Z,15.00
2018-05-03T20:43:11.102Z,14.90
2018-05-03T20:45:37.258Z,15.00
2018-05-03T20:48:03.481Z,14.90
2018-05-03T20:50:31.065Z,14.90
2018-05-03T20:52:57.288Z,14.90
2018-05-03T20:55:23.480Z,14.90
2018-05-03T20:57:49.658Z,14.80
2018-05-03T21:00:16.101Z,15.00
2018-05-03T21:02:42.353Z,14.80
2018-05-03T21:05:09.665Z,14.80
2018-05-03T21:07:36.438Z,14.80
2018-05-03T21:10:03.250Z,14.80
2018-05-03T21:12:29.440Z,14.80
2018-05-03T21:14:55.632Z,14.70
2018-05-03T21:17:21.828Z,14.60
2018-05-03T21:19:49.095Z,14.60
2018-05-03T21:22:15.260Z,14.50
2018-05-03T21:24:41.579Z,14.50
2018-05-03T21:27:07.744Z,14.60
2018-05-03T21:29:33.930Z,14.50
2018-05-03T21:32:01.206Z,14.50
2018-05-03T21:34:27.388Z,14.50
2018-05-03T21:36:53.602Z,14.40
2018-05-03T21:39:19.818Z,14.40
2018-05-03T21:41:46.576Z,14.40
2018-05-03T21:44:13.794Z,14.30
2018-05-03T21:46:40.119Z,14.20
2018-05-03T21:49:06.307Z,14.30
2018-05-03T21:51:32.476Z,14.30
2018-05-03T21:53:58.658Z,14.20
2018-05-03T21:56:24.831Z,14.20
2018-05-03T21:58:52.181Z,14.20
2018-05-03T22:03:46.345Z,14.20
2018-05-03T22:08:40.429Z,14.00
2018-05-03T22:11:06.606Z,14.10
2018-05-03T22:13:32.783Z,14.00
2018-05-03T22:15:58.995Z,14.00
2018-05-03T22:18:25.158Z,14.00
2018-05-03T22:20:51.363Z,14.00
2018-05-03T22:23:17.554Z,14.00
2018-05-03T22:25:43.729Z,13.90
2018-05-03T22:28:09.910Z,13.90
2018-05-03T22:33:03.986Z,13.50
2018-05-03T22:37:58.058Z,13.80
2018-05-03T22:40:24.246Z,13.80
2018-05-03T22:42:51.653Z,13.80
2018-05-03T22:45:17.838Z,13.80
2018-05-03T22:47:44.007Z,13.80
2018-05-03T22:50:10.184Z,13.70
2018-05-03T22:52:36.361Z,13.70
2018-05-03T22:55:02.539Z,13.70
2018-05-03T22:59:56.626Z,13.60
2018-05-03T23:02:23.900Z,13.50
2018-05-03T23:04:50.090Z,13.50
2018-05-03T23:07:16.306Z,13.50
2018-05-03T23:09:42.503Z,13.50
2018-05-03T23:12:09.772Z,13.40
2018-05-03T23:14:35.927Z,13.40
2018-05-03T23:17:02.110Z,13.50
2018-05-03T23:19:28.302Z,13.50
2018-05-03T23:21:54.491Z,13.40
2018-05-03T23:24:21.784Z,13.30
2018-05-03T23:26:47.968Z,13.40
2018-05-03T23:29:14.137Z,13.40
2018-05-03T23:31:40.323Z,13.30
2018-05-03T23:34:06.590Z,13.30
2018-05-03T23:36:32.759Z,13.30
2018-05-03T23:38:58.969Z,13.20
2018-05-03T23:41:25.172Z,13.20
2018-05-03T23:43:51.378Z,13.20
2018-05-03T23:46:17.539Z,13.10
2018-05-03T23:48:44.830Z,13.10
2018-05-03T23:51:10.983Z,13.00
2018-05-03T23:53:37.163Z,13.00
2018-05-03T23:56:03.402Z,13.10
2018-05-03T23:58:29.568Z,13.00
